sensor_id;sensor_type;location;lat;lon;timestamp;P1;durP1;ratioP1;P2;durP2;ratioP2
59930;SDS011;45790;51.538;6.736;2022-10-31T00:01:34;7.80;;;4.75;;
59930;SDS011;45790;51.538;6.736;2022-10-31T00:04:02;7.60;;;4.30;;
59930;SDS011;45790;51.538;6.736;2022-10-31T00:06:30;7.93;;;4.57;;
59930;SDS011;45790;51.538;6.736;2022-10-31T00:09:04;8.57;;;4.40;;
59930;SDS011;45790;51.538;6.736;2022-10-31T00:11:29;7.20;;;4.18;;
59930;SDS011;45790;51.538;6.736;2022-10-31T00:13:58;8.65;;;4.60;;
59930;SDS011;45790;51.538;6.736;2022-10-31T00:16:35;6.80;;;4.38;;
59930;SDS011;45790;51.538;6.736;2022-10-31T00:19:05;6.22;;;4.30;;
59930;SDS011;45790;51.538;6.736;2022-10-31T00:21:36;8.07;;;4.35;;
59930;SDS011;45790;51.538;6.736;2022-10-31T00:24:05;8.30;;;4.60;;
59930;SDS011;45790;51.538;6.736;2022-10-31T00:26:41;8.45;;;4.50;;
59930;SDS011;45790;51.538;6.736;2022-10-31T00:29:09;7.00;;;4.38;;
59930;SDS011;45790;51.538;6.736;2022-10-31T00:31:45;6.78;;;4.38;;
59930;SDS011;45790;51.538;6.736;2022-10-31T00:34:11;6.20;;;4.05;;
59930;SDS011;45790;51.538;6.736;2022-10-31T00:36:41;7.25;;;4.45;;
59930;SDS011;45790;51.538;6.736;2022-10-31T00:39:06;9.32;;;4.43;;
59930;SDS011;45790;51.538;6.736;2022-10-31T00:41:37;8.60;;;4.45;;
59930;SDS011;45790;51.538;6.736;2022-10-31T00:44:05;7.68;;;4.18;;
59930;SDS011;45790;51.538;6.736;2022-10-31T00:46:36;7.72;;;4.80;;
59930;SDS011;45790;51.538;6.736;2022-10-31T00:49:03;9.50;;;4.82;;
59930;SDS011;45790;51.538;6.736;2022-10-31T00:51:28;8.68;;;4.78;;
59930;SDS011;45790;51.538;6.736;2022-10-31T00:53:53;8.68;;;4.97;;
59930;SDS011;45790;51.538;6.736;2022-10-31T00:56:19;6.03;;;4.25;;
59930;SDS011;45790;51.538;6.736;2022-10-31T00:58:44;9.18;;;4.63;;
59930;SDS011;45790;51.538;6.736;2022-10-31T01:01:13;7.63;;;4.63;;
59930;SDS011;45790;51.538;6.736;2022-10-31T01:03:41;8.38;;;4.75;;
59930;SDS011;45790;51.538;6.736;2022-10-31T01:06:12;7.22;;;4.10;;
59930;SDS011;45790;51.538;6.736;2022-10-31T01:08:38;8.27;;;4.60;;
59930;SDS011;45790;51.538;6.736;2022-10-31T01:11:07;7.65;;;4.43;;
59930;SDS011;45790;51.538;6.736;2022-10-31T01:13:42;6.80;;;4.10;;
59930;SDS011;45790;51.538;6.736;2022-10-31T01:16:09;8.52;;;4.82;;
59930;SDS011;45790;51.538;6.736;2022-10-31T01:18:39;7.53;;;4.30;;
59930;SDS011;45790;51.538;6.736;2022-10-31T01:21:06;7.28;;;4.22;;
59930;SDS011;45790;51.538;6.736;2022-10-31T01:23:36;7.93;;;4.40;;
59930;SDS011;45790;51.538;6.736;2022-10-31T01:26:12;9.82;;;4.65;;
59930;SDS011;45790;51.538;6.736;2022-10-31T01:31:21;8.25;;;4.35;;
59930;SDS011;45790;51.538;6.736;2022-10-31T01:33:55;7.57;;;4.32;;
59930;SDS011;45790;51.538;6.736;2022-10-31T01:36:25;9.10;;;4.43;;
59930;SDS011;45790;51.538;6.736;2022-10-31T01:38:53;7.88;;;4.57;;
59930;SDS011;45790;51.538;6.736;2022-10-31T01:41:22;8.45;;;4.72;;
59930;SDS011;45790;51.538;6.736;2022-10-31T01:43:51;7.03;;;4.25;;
59930;SDS011;45790;51.538;6.736;2022-10-31T01:46:24;7.65;;;4.63;;
59930;SDS011;45790;51.538;6.736;2022-10-31T01:48:53;7.63;;;4.03;;
59930;SDS011;45790;51.538;6.736;2022-10-31T01:51:19;7.43;;;3.85;;
59930;SDS011;45790;51.538;6.736;2022-10-31T01:53:58;7.18;;;4.47;;
59930;SDS011;45790;51.538;6.736;2022-10-31T01:56:28;6.13;;;4.22;;
59930;SDS011;45790;51.538;6.736;2022-10-31T01:58:59;7.60;;;4.43;;
59930;SDS011;45790;51.538;6.736;2022-10-31T02:01:26;6.27;;;3.93;;
59930;SDS011;45790;51.538;6.736;2022-10-31T02:03:54;10.10;;;4.40;;
59930;SDS011;45790;51.538;6.736;2022-10-31T02:06:26;7.97;;;4.40;;
59930;SDS011;45790;51.538;6.736;2022-10-31T02:08:58;8.27;;;3.70;;
59930;SDS011;45790;51.538;6.736;2022-10-31T02:11:33;6.40;;;4.13;;
59930;SDS011;45790;51.538;6.736;2022-10-31T02:14:02;7.00;;;4.20;;
59930;SDS011;45790;51.538;6.736;2022-10-31T02:16:36;6.90;;;3.95;;
59930;SDS011;45790;51.538;6.736;2022-10-31T02:21:33;6.80;;;3.88;;
59930;SDS011;45790;51.538;6.736;2022-10-31T02:24:21;8.13;;;3.97;;
59930;SDS011;45790;51.538;6.736;2022-10-31T02:27:08;7.03;;;4.10;;
59930;SDS011;45790;51.538;6.736;2022-10-31T02:32:18;7.05;;;3.65;;
59930;SDS011;45790;51.538;6.736;2022-10-31T02:35:03;9.93;;;4.38;;
59930;SDS011;45790;51.538;6.736;2022-10-31T02:37:41;6.90;;;4.03;;
59930;SDS011;45790;51.538;6.736;2022-10-31T02:40:15;8.82;;;4.15;;
59930;SDS011;45790;51.538;6.736;2022-10-31T02:42:59;7.30;;;4.65;;
59930;SDS011;45790;51.538;6.736;2022-10-31T02:45:38;9.38;;;4.00;;
59930;SDS011;45790;51.538;6.736;2022-10-31T02:48:24;8.80;;;4.78;;
59930;SDS011;45790;51.538;6.736;2022-10-31T02:51:03;8.57;;;3.83;;
59930;SDS011;45790;51.538;6.736;2022-10-31T02:53:35;7.43;;;4.55;;
59930;SDS011;45790;51.538;6.736;2022-10-31T02:56:14;10.02;;;4.95;;
59930;SDS011;45790;51.538;6.736;2022-10-31T02:58:55;7.68;;;4.10;;
59930;SDS011;45790;51.538;6.736;2022-10-31T03:04:27;6.63;;;3.97;;
59930;SDS011;45790;51.538;6.736;2022-10-31T03:14:41;6.63;;;3.80;;
59930;SDS011;45790;51.538;6.736;2022-10-31T03:17:47;9.38;;;4.20;;
59930;SDS011;45790;51.538;6.736;2022-10-31T03:20:19;7.00;;;3.83;;
59930;SDS011;45790;51.538;6.736;2022-10-31T03:22:51;7.53;;;4.68;;
59930;SDS011;45790;51.538;6.736;2022-10-31T03:25:17;8.13;;;3.63;;
59930;SDS011;45790;51.538;6.736;2022-10-31T03:27:43;8.15;;;4.28;;
59930;SDS011;45790;51.538;6.736;2022-10-31T03:30:15;9.65;;;4.53;;
59930;SDS011;45790;51.538;6.736;2022-10-31T03:32:43;8.43;;;4.20;;
59930;SDS011;45790;51.538;6.736;2022-10-31T03:35:11;6.37;;;4.17;;
59930;SDS011;45790;51.538;6.736;2022-10-31T03:37:39;7.85;;;4.25;;
59930;SDS011;45790;51.538;6.736;2022-10-31T03:40:06;6.10;;;4.15;;
59930;SDS011;45790;51.538;6.736;2022-10-31T03:42:38;7.60;;;3.90;;
59930;SDS011;45790;51.538;6.736;2022-10-31T03:45:23;8.13;;;4.30;;
59930;SDS011;45790;51.538;6.736;2022-10-31T03:47:50;8.02;;;4.10;;
59930;SDS011;45790;51.538;6.736;2022-10-31T03:50:16;7.85;;;4.05;;
59930;SDS011;45790;51.538;6.736;2022-10-31T03:53:03;7.57;;;3.90;;
59930;SDS011;45790;51.538;6.736;2022-10-31T03:55:32;7.13;;;3.83;;
59930;SDS011;45790;51.538;6.736;2022-10-31T03:58:12;9.75;;;4.28;;
59930;SDS011;45790;51.538;6.736;2022-10-31T04:00:44;8.57;;;3.85;;
59930;SDS011;45790;51.538;6.736;2022-10-31T04:03:43;7.63;;;3.90;;
59930;SDS011;45790;51.538;6.736;2022-10-31T04:06:03;7.60;;;3.90;;
59930;SDS011;45790;51.538;6.736;2022-10-31T04:08:32;6.82;;;3.85;;
59930;SDS011;45790;51.538;6.736;2022-10-31T04:10:59;7.50;;;4.35;;
59930;SDS011;45790;51.538;6.736;2022-10-31T04:13:28;7.07;;;4.15;;
59930;SDS011;45790;51.538;6.736;2022-10-31T04:18:22;6.68;;;3.78;;
59930;SDS011;45790;51.538;6.736;2022-10-31T04:20:47;6.38;;;3.90;;
59930;SDS011;45790;51.538;6.736;2022-10-31T04:23:18;6.68;;;3.78;;
59930;SDS011;45790;51.538;6.736;2022-10-31T04:25:45;7.03;;;4.18;;
59930;SDS011;45790;51.538;6.736;2022-10-31T04:28:11;7.00;;;4.00;;
59930;SDS011;45790;51.538;6.736;2022-10-31T04:30:36;8.13;;;4.05;;
59930;SDS011;45790;51.538;6.736;2022-10-31T04:33:01;6.43;;;3.88;;
59930;SDS011;45790;51.538;6.736;2022-10-31T04:35:27;7.00;;;3.88;;
59930;SDS011;45790;51.538;6.736;2022-10-31T04:37:52;6.85;;;4.05;;
59930;SDS011;45790;51.538;6.736;2022-10-31T04:40:17;6.80;;;4.05;;
59930;SDS011;45790;51.538;6.736;2022-10-31T04:42:43;8.13;;;4.22;;
59930;SDS011;45790;51.538;6.736;2022-10-31T04:45:08;7.93;;;3.97;;
59930;SDS011;45790;51.538;6.736;2022-10-31T04:47:33;7.65;;;4.40;;
59930;SDS011;45790;51.538;6.736;2022-10-31T04:49:59;6.40;;;4.00;;
59930;SDS011;45790;51.538;6.736;2022-10-31T04:52:24;7.07;;;4.10;;
59930;SDS011;45790;51.538;6.736;2022-10-31T04:54:50;5.88;;;3.75;;
59930;SDS011;45790;51.538;6.736;2022-10-31T04:57:19;8.07;;;4.22;;
59930;SDS011;45790;51.538;6.736;2022-10-31T04:59:44;8.15;;;3.80;;
59930;SDS011;45790;51.538;6.736;2022-10-31T05:02:09;8.55;;;3.70;;
59930;SDS011;45790;51.538;6.736;2022-10-31T05:04:34;8.25;;;3.92;;
59930;SDS011;45790;51.538;6.736;2022-10-31T05:07:00;7.70;;;3.90;;
59930;SDS011;45790;51.538;6.736;2022-10-31T05:09:25;5.68;;;3.65;;
59930;SDS011;45790;51.538;6.736;2022-10-31T05:11:50;7.45;;;4.18;;
59930;SDS011;45790;51.538;6.736;2022-10-31T05:14:16;9.00;;;4.38;;
59930;SDS011;45790;51.538;6.736;2022-10-31T05:16:41;5.75;;;3.80;;
59930;SDS011;45790;51.538;6.736;2022-10-31T05:19:06;6.30;;;3.78;;
59930;SDS011;45790;51.538;6.736;2022-10-31T05:21:31;8.10;;;4.18;;
59930;SDS011;45790;51.538;6.736;2022-10-31T05:23:57;7.47;;;3.88;;
59930;SDS011;45790;51.538;6.736;2022-10-31T05:26:22;7.93;;;4.00;;
59930;SDS011;45790;51.538;6.736;2022-10-31T05:28:55;6.47;;;3.80;;
59930;SDS011;45790;51.538;6.736;2022-10-31T05:31:21;6.35;;;3.60;;
59930;SDS011;45790;51.538;6.736;2022-10-31T05:33:46;6.53;;;3.88;;
59930;SDS011;45790;51.538;6.736;2022-10-31T05:36:11;6.40;;;3.70;;
59930;SDS011;45790;51.538;6.736;2022-10-31T05:38:37;5.80;;;3.78;;
59930;SDS011;45790;51.538;6.736;2022-10-31T05:41:02;6.70;;;4.28;;
59930;SDS011;45790;51.538;6.736;2022-10-31T05:43:27;7.03;;;3.83;;
59930;SDS011;45790;51.538;6.736;2022-10-31T05:45:55;6.75;;;4.22;;
59930;SDS011;45790;51.538;6.736;2022-10-31T05:48:24;6.18;;;3.83;;
59930;SDS011;45790;51.538;6.736;2022-10-31T05:50:50;5.43;;;3.60;;
59930;SDS011;45790;51.538;6.736;2022-10-31T05:53:15;6.82;;;4.32;;
59930;SDS011;45790;51.538;6.736;2022-10-31T05:55:41;6.10;;;3.80;;
59930;SDS011;45790;51.538;6.736;2022-10-31T05:58:07;6.60;;;3.83;;
59930;SDS011;45790;51.538;6.736;2022-10-31T06:00:33;9.25;;;4.30;;
59930;SDS011;45790;51.538;6.736;2022-10-31T06:03:02;6.95;;;3.85;;
59930;SDS011;45790;51.538;6.736;2022-10-31T06:05:29;7.75;;;4.18;;
59930;SDS011;45790;51.538;6.736;2022-10-31T06:07:54;8.43;;;4.40;;
59930;SDS011;45790;51.538;6.736;2022-10-31T06:10:23;7.68;;;3.97;;
59930;SDS011;45790;51.538;6.736;2022-10-31T06:12:48;7.75;;;4.43;;
59930;SDS011;45790;51.538;6.736;2022-10-31T06:15:14;7.03;;;4.68;;
59930;SDS011;45790;51.538;6.736;2022-10-31T06:17:40;7.70;;;4.10;;
59930;SDS011;45790;51.538;6.736;2022-10-31T06:20:05;6.88;;;4.40;;
59930;SDS011;45790;51.538;6.736;2022-10-31T06:22:32;7.75;;;4.05;;
59930;SDS011;45790;51.538;6.736;2022-10-31T06:24:57;7.28;;;3.95;;
59930;SDS011;45790;51.538;6.736;2022-10-31T06:27:23;7.90;;;3.83;;
59930;SDS011;45790;51.538;6.736;2022-10-31T06:29:48;7.65;;;3.95;;
59930;SDS011;45790;51.538;6.736;2022-10-31T06:32:14;10.18;;;4.40;;
59930;SDS011;45790;51.538;6.736;2022-10-31T06:34:40;8.70;;;4.22;;
59930;SDS011;45790;51.538;6.736;2022-10-31T06:37:06;8.65;;;4.45;;
59930;SDS011;45790;51.538;6.736;2022-10-31T06:39:32;9.73;;;4.40;;
59930;SDS011;45790;51.538;6.736;2022-10-31T06:41:58;7.18;;;4.78;;
59930;SDS011;45790;51.538;6.736;2022-10-31T06:44:26;8.45;;;4.97;;
59930;SDS011;45790;51.538;6.736;2022-10-31T06:46:52;8.60;;;4.50;;
59930;SDS011;45790;51.538;6.736;2022-10-31T06:49:19;11.82;;;4.45;;
59930;SDS011;45790;51.538;6.736;2022-10-31T06:51:48;10.32;;;5.03;;
59930;SDS011;45790;51.538;6.736;2022-10-31T06:54:14;7.68;;;4.40;;
59930;SDS011;45790;51.538;6.736;2022-10-31T06:56:45;8.05;;;4.63;;
59930;SDS011;45790;51.538;6.736;2022-10-31T06:59:13;9.57;;;4.95;;
59930;SDS011;45790;51.538;6.736;2022-10-31T07:01:42;8.07;;;4.50;;
59930;SDS011;45790;51.538;6.736;2022-10-31T07:04:09;7.57;;;4.32;;
59930;SDS011;45790;51.538;6.736;2022-10-31T07:06:37;8.50;;;4.47;;
59930;SDS011;45790;51.538;6.736;2022-10-31T07:09:03;7.78;;;4.35;;
59930;SDS011;45790;51.538;6.736;2022-10-31T07:11:28;7.55;;;4.18;;
59930;SDS011;45790;51.538;6.736;2022-10-31T07:13:53;10.27;;;5.25;;
59930;SDS011;45790;51.538;6.736;2022-10-31T07:16:19;8.40;;;4.60;;
59930;SDS011;45790;51.538;6.736;2022-10-31T07:18:44;6.82;;;4.25;;
59930;SDS011;45790;51.538;6.736;2022-10-31T07:21:09;9.65;;;5.10;;
59930;SDS011;45790;51.538;6.736;2022-10-31T07:23:35;7.30;;;4.32;;
59930;SDS011;45790;51.538;6.736;2022-10-31T07:26:00;8.88;;;5.00;;
59930;SDS011;45790;51.538;6.736;2022-10-31T07:28:26;10.02;;;4.90;;
59930;SDS011;45790;51.538;6.736;2022-10-31T07:30:55;8.50;;;4.43;;
59930;SDS011;45790;51.538;6.736;2022-10-31T07:33:21;10.88;;;4.15;;
59930;SDS011;45790;51.538;6.736;2022-10-31T07:35:47;9.98;;;4.57;;
59930;SDS011;45790;51.538;6.736;2022-10-31T07:38:13;9.05;;;4.82;;
59930;SDS011;45790;51.538;6.736;2022-10-31T07:40:39;6.85;;;4.25;;
59930;SDS011;45790;51.538;6.736;2022-10-31T07:43:06;7.70;;;4.32;;
59930;SDS011;45790;51.538;6.736;2022-10-31T07:45:31;8.45;;;4.68;;
59930;SDS011;45790;51.538;6.736;2022-10-31T07:47:56;9.80;;;4.68;;
59930;SDS011;45790;51.538;6.736;2022-10-31T07:50:23;7.72;;;4.93;;
59930;SDS011;45790;51.538;6.736;2022-10-31T07:55:28;8.98;;;4.55;;
59930;SDS011;45790;51.538;6.736;2022-10-31T07:58:01;11.10;;;4.53;;
59930;SDS011;45790;51.538;6.736;2022-10-31T08:00:28;9.32;;;4.90;;
59930;SDS011;45790;51.538;6.736;2022-10-31T08:02:57;10.98;;;4.70;;
59930;SDS011;45790;51.538;6.736;2022-10-31T08:05:26;8.65;;;4.70;;
59930;SDS011;45790;51.538;6.736;2022-10-31T08:07:52;8.10;;;4.38;;
59930;SDS011;45790;51.538;6.736;2022-10-31T08:10:17;8.70;;;4.55;;
59930;SDS011;45790;51.538;6.736;2022-10-31T08:12:42;8.07;;;4.50;;
59930;SDS011;45790;51.538;6.736;2022-10-31T08:15:08;9.40;;;4.78;;
59930;SDS011;45790;51.538;6.736;2022-10-31T08:17:39;9.45;;;5.07;;
59930;SDS011;45790;51.538;6.736;2022-10-31T08:20:05;9.27;;;4.85;;
59930;SDS011;45790;51.538;6.736;2022-10-31T08:22:31;10.65;;;5.28;;
59930;SDS011;45790;51.538;6.736;2022-10-31T08:24:56;8.40;;;4.40;;
59930;SDS011;45790;51.538;6.736;2022-10-31T08:27:21;9.50;;;4.90;;
59930;SDS011;45790;51.538;6.736;2022-10-31T08:29:47;7.38;;;4.40;;
59930;SDS011;45790;51.538;6.736;2022-10-31T08:32:12;10.90;;;4.80;;
59930;SDS011;45790;51.538;6.736;2022-10-31T08:34:38;7.80;;;4.60;;
59930;SDS011;45790;51.538;6.736;2022-10-31T08:37:03;8.80;;;4.93;;
59930;SDS011;45790;51.538;6.736;2022-10-31T08:39:28;6.78;;;4.43;;
59930;SDS011;45790;51.538;6.736;2022-10-31T08:41:53;9.52;;;5.18;;
59930;SDS011;45790;51.538;6.736;2022-10-31T08:44:19;10.02;;;4.85;;
59930;SDS011;45790;51.538;6.736;2022-10-31T08:46:44;9.48;;;4.72;;
59930;SDS011;45790;51.538;6.736;2022-10-31T08:49:09;7.45;;;4.45;;
59930;SDS011;45790;51.538;6.736;2022-10-31T08:51:35;7.50;;;4.40;;
59930;SDS011;45790;51.538;6.736;2022-10-31T08:54:00;8.50;;;5.13;;
59930;SDS011;45790;51.538;6.736;2022-10-31T08:56:25;8.15;;;4.50;;
59930;SDS011;45790;51.538;6.736;2022-10-31T08:58:52;8.77;;;4.82;;
59930;SDS011;45790;51.538;6.736;2022-10-31T09:01:18;7.75;;;4.60;;
59930;SDS011;45790;51.538;6.736;2022-10-31T09:03:43;8.60;;;5.13;;
59930;SDS011;45790;51.538;6.736;2022-10-31T09:06:10;10.13;;;5.10;;
59930;SDS011;45790;51.538;6.736;2022-10-31T09:08:36;8.45;;;5.60;;
59930;SDS011;45790;51.538;6.736;2022-10-31T09:11:02;7.00;;;4.45;;
59930;SDS011;45790;51.538;6.736;2022-10-31T09:13:27;9.40;;;4.95;;
59930;SDS011;45790;51.538;6.736;2022-10-31T09:15:53;8.32;;;4.95;;
59930;SDS011;45790;51.538;6.736;2022-10-31T09:18:19;7.75;;;4.60;;
59930;SDS011;45790;51.538;6.736;2022-10-31T09:20:46;7.45;;;5.07;;
59930;SDS011;45790;51.538;6.736;2022-10-31T09:23:22;8.95;;;5.05;;
59930;SDS011;45790;51.538;6.736;2022-10-31T09:25:48;9.20;;;5.03;;
59930;SDS011;45790;51.538;6.736;2022-10-31T09:28:18;7.53;;;4.77;;
59930;SDS011;45790;51.538;6.736;2022-10-31T09:30:48;8.40;;;4.93;;
59930;SDS011;45790;51.538;6.736;2022-10-31T09:33:15;10.90;;;4.90;;
59930;SDS011;45790;51.538;6.736;2022-10-31T09:35:40;8.32;;;4.88;;
59930;SDS011;45790;51.538;6.736;2022-10-31T09:38:08;7.43;;;4.72;;
59930;SDS011;45790;51.538;6.736;2022-10-31T09:40:40;8.57;;;5.35;;
59930;SDS011;45790;51.538;6.736;2022-10-31T09:51:57;9.45;;;4.93;;
59930;SDS011;45790;51.538;6.736;2022-10-31T09:54:48;8.20;;;5.35;;
59930;SDS011;45790;51.538;6.736;2022-10-31T09:57:18;10.25;;;5.38;;
59930;SDS011;45790;51.538;6.736;2022-10-31T09:59:51;8.30;;;4.95;;
59930;SDS011;45790;51.538;6.736;2022-10-31T10:04:53;7.60;;;4.60;;
59930;SDS011;45790;51.538;6.736;2022-10-31T10:10:21;7.13;;;4.40;;
59930;SDS011;45790;51.538;6.736;2022-10-31T10:13:05;7.63;;;4.35;;
59930;SDS011;45790;51.538;6.736;2022-10-31T10:21:37;7.78;;;4.60;;
59930;SDS011;45790;51.538;6.736;2022-10-31T10:24:12;8.60;;;5.30;;
59930;SDS011;45790;51.538;6.736;2022-10-31T10:26:47;8.90;;;5.30;;
59930;SDS011;45790;51.538;6.736;2022-10-31T10:29:36;9.75;;;5.15;;
59930;SDS011;45790;51.538;6.736;2022-10-31T10:32:18;10.60;;;5.50;;
59930;SDS011;45790;51.538;6.736;2022-10-31T10:34:50;9.07;;;5.63;;
59930;SDS011;45790;51.538;6.736;2022-10-31T10:40:13;12.63;;;6.68;;
59930;SDS011;45790;51.538;6.736;2022-10-31T10:42:50;10.73;;;6.45;;
59930;SDS011;45790;51.538;6.736;2022-10-31T10:45:39;10.98;;;6.60;;
59930;SDS011;45790;51.538;6.736;2022-10-31T10:48:32;11.48;;;6.30;;
59930;SDS011;45790;51.538;6.736;2022-10-31T10:51:03;13.82;;;6.32;;
59930;SDS011;45790;51.538;6.736;2022-10-31T10:53:38;13.65;;;7.20;;
59930;SDS011;45790;51.538;6.736;2022-10-31T10:56:30;12.40;;;7.25;;
59930;SDS011;45790;51.538;6.736;2022-10-31T10:59:02;9.57;;;6.43;;
59930;SDS011;45790;51.538;6.736;2022-10-31T11:01:34;13.52;;;7.35;;
59930;SDS011;45790;51.538;6.736;2022-10-31T11:04:00;14.13;;;7.38;;
59930;SDS011;45790;51.538;6.736;2022-10-31T11:06:27;13.98;;;7.72;;
59930;SDS011;45790;51.538;6.736;2022-10-31T11:08:52;12.60;;;7.43;;
59930;SDS011;45790;51.538;6.736;2022-10-31T11:11:28;15.00;;;7.88;;
59930;SDS011;45790;51.538;6.736;2022-10-31T11:14:12;13.90;;;7.88;;
59930;SDS011;45790;51.538;6.736;2022-10-31T11:16:38;16.73;;;8.70;;
59930;SDS011;45790;51.538;6.736;2022-10-31T11:21:39;14.98;;;8.10;;
59930;SDS011;45790;51.538;6.736;2022-10-31T11:26:33;16.42;;;8.07;;
59930;SDS011;45790;51.538;6.736;2022-10-31T11:29:00;16.05;;;8.77;;
59930;SDS011;45790;51.538;6.736;2022-10-31T11:31:29;14.32;;;8.13;;
59930;SDS011;45790;51.538;6.736;2022-10-31T11:34:02;14.57;;;8.20;;
59930;SDS011;45790;51.538;6.736;2022-10-31T11:36:29;13.40;;;8.75;;
59930;SDS011;45790;51.538;6.736;2022-10-31T11:39:05;14.70;;;8.53;;
59930;SDS011;45790;51.538;6.736;2022-10-31T11:41:47;15.40;;;8.55;;
59930;SDS011;45790;51.538;6.736;2022-10-31T11:46:48;13.00;;;7.93;;
59930;SDS011;45790;51.538;6.736;2022-10-31T11:49:19;14.05;;;8.35;;
59930;SDS011;45790;51.538;6.736;2022-10-31T11:51:49;14.68;;;7.93;;
59930;SDS011;45790;51.538;6.736;2022-10-31T11:54:20;13.10;;;8.35;;
59930;SDS011;45790;51.538;6.736;2022-10-31T11:56:51;17.25;;;7.97;;
59930;SDS011;45790;51.538;6.736;2022-10-31T11:59:27;15.45;;;8.57;;
59930;SDS011;45790;51.538;6.736;2022-10-31T12:01:55;16.25;;;8.43;;
59930;SDS011;45790;51.538;6.736;2022-10-31T12:04:24;14.50;;;7.85;;
59930;SDS011;45790;51.538;6.736;2022-10-31T12:06:55;17.20;;;8.98;;
59930;SDS011;45790;51.538;6.736;2022-10-31T12:09:26;15.98;;;7.85;;
59930;SDS011;45790;51.538;6.736;2022-10-31T12:17:31;15.77;;;8.52;;
59930;SDS011;45790;51.538;6.736;2022-10-31T12:26:08;16.20;;;8.55;;
59930;SDS011;45790;51.538;6.736;2022-10-31T12:29:09;15.85;;;8.82;;
59930;SDS011;45790;51.538;6.736;2022-10-31T12:51:26;13.32;;;8.45;;
59930;SDS011;45790;51.538;6.736;2022-10-31T12:54:05;15.07;;;8.43;;
59930;SDS011;45790;51.538;6.736;2022-10-31T12:57:16;13.70;;;8.43;;
59930;SDS011;45790;51.538;6.736;2022-10-31T12:59:47;14.02;;;8.57;;
59930;SDS011;45790;51.538;6.736;2022-10-31T13:02:25;17.65;;;9.32;;
59930;SDS011;45790;51.538;6.736;2022-10-31T13:04:56;17.95;;;10.25;;
59930;SDS011;45790;51.538;6.736;2022-10-31T13:07:29;17.50;;;8.52;;
59930;SDS011;45790;51.538;6.736;2022-10-31T13:10:07;20.42;;;8.77;;
59930;SDS011;45790;51.538;6.736;2022-10-31T13:12:34;13.65;;;8.23;;
59930;SDS011;45790;51.538;6.736;2022-10-31T13:15:11;15.18;;;8.15;;
59930;SDS011;45790;51.538;6.736;2022-10-31T13:17:42;15.77;;;8.77;;
59930;SDS011;45790;51.538;6.736;2022-10-31T13:22:42;13.10;;;8.27;;
59930;SDS011;45790;51.538;6.736;2022-10-31T13:25:11;17.88;;;8.77;;
59930;SDS011;45790;51.538;6.736;2022-10-31T13:27:46;15.93;;;9.30;;
59930;SDS011;45790;51.538;6.736;2022-10-31T13:30:22;11.35;;;7.80;;
59930;SDS011;45790;51.538;6.736;2022-10-31T13:35:46;20.15;;;8.55;;
59930;SDS011;45790;51.538;6.736;2022-10-31T13:38:19;18.38;;;8.77;;
59930;SDS011;45790;51.538;6.736;2022-10-31T13:40:51;16.58;;;8.20;;
59930;SDS011;45790;51.538;6.736;2022-10-31T13:43:26;15.05;;;8.48;;
59930;SDS011;45790;51.538;6.736;2022-10-31T13:45:53;13.25;;;7.70;;
59930;SDS011;45790;51.538;6.736;2022-10-31T13:48:32;13.98;;;8.38;;
59930;SDS011;45790;51.538;6.736;2022-10-31T13:51:04;16.92;;;8.02;;
59930;SDS011;45790;51.538;6.736;2022-10-31T13:53:39;14.13;;;7.80;;
59930;SDS011;45790;51.538;6.736;2022-10-31T13:56:15;14.80;;;7.53;;
59930;SDS011;45790;51.538;6.736;2022-10-31T14:01:53;13.55;;;7.45;;
59930;SDS011;45790;51.538;6.736;2022-10-31T14:04:22;14.88;;;7.68;;
59930;SDS011;45790;51.538;6.736;2022-10-31T14:09:39;14.48;;;7.60;;
59930;SDS011;45790;51.538;6.736;2022-10-31T14:13:04;11.40;;;6.90;;
59930;SDS011;45790;51.538;6.736;2022-10-31T14:17:40;11.93;;;7.00;;
59930;SDS011;45790;51.538;6.736;2022-10-31T14:22:39;14.57;;;7.60;;
59930;SDS011;45790;51.538;6.736;2022-10-31T14:27:50;11.82;;;7.15;;
59930;SDS011;45790;51.538;6.736;2022-10-31T14:30:22;12.85;;;6.82;;
59930;SDS011;45790;51.538;6.736;2022-10-31T14:32:50;12.45;;;6.82;;
59930;SDS011;45790;51.538;6.736;2022-10-31T14:35:18;11.80;;;6.72;;
59930;SDS011;45790;51.538;6.736;2022-10-31T14:40:52;9.85;;;6.65;;
59930;SDS011;45790;51.538;6.736;2022-10-31T14:46:40;15.02;;;7.25;;
59930;SDS011;45790;51.538;6.736;2022-10-31T14:51:59;12.18;;;7.03;;
59930;SDS011;45790;51.538;6.736;2022-10-31T14:54:33;15.18;;;7.25;;
59930;SDS011;45790;51.538;6.736;2022-10-31T14:57:20;12.25;;;6.53;;
59930;SDS011;45790;51.538;6.736;2022-10-31T14:59:55;14.30;;;7.03;;
59930;SDS011;45790;51.538;6.736;2022-10-31T15:02:37;10.73;;;6.85;;
59930;SDS011;45790;51.538;6.736;2022-10-31T15:05:27;12.18;;;7.25;;
59930;SDS011;45790;51.538;6.736;2022-10-31T15:07:54;11.95;;;6.72;;
59930;SDS011;45790;51.538;6.736;2022-10-31T15:10:25;10.25;;;6.22;;
59930;SDS011;45790;51.538;6.736;2022-10-31T15:12:50;9.57;;;7.03;;
59930;SDS011;45790;51.538;6.736;2022-10-31T15:15:23;9.20;;;7.05;;
59930;SDS011;45790;51.538;6.736;2022-10-31T15:17:57;15.40;;;6.65;;
59930;SDS011;45790;51.538;6.736;2022-10-31T15:20:37;11.55;;;6.65;;
59930;SDS011;45790;51.538;6.736;2022-10-31T15:23:09;12.02;;;6.80;;
59930;SDS011;45790;51.538;6.736;2022-10-31T15:25:38;11.90;;;6.93;;
59930;SDS011;45790;51.538;6.736;2022-10-31T15:28:15;12.65;;;6.05;;
59930;SDS011;45790;51.538;6.736;2022-10-31T15:33:22;11.70;;;6.57;;
59930;SDS011;45790;51.538;6.736;2022-10-31T15:35:55;12.80;;;6.90;;
59930;SDS011;45790;51.538;6.736;2022-10-31T15:38:26;11.63;;;5.93;;
59930;SDS011;45790;51.538;6.736;2022-10-31T15:40:53;10.90;;;6.28;;
59930;SDS011;45790;51.538;6.736;2022-10-31T15:43:22;11.55;;;6.07;;
59930;SDS011;45790;51.538;6.736;2022-10-31T15:45:51;15.00;;;6.72;;
59930;SDS011;45790;51.538;6.736;2022-10-31T15:48:22;9.63;;;6.10;;
59930;SDS011;45790;51.538;6.736;2022-10-31T15:50:54;11.93;;;6.07;;
59930;SDS011;45790;51.538;6.736;2022-10-31T15:53:22;11.67;;;6.27;;
59930;SDS011;45790;51.538;6.736;2022-10-31T15:56:12;10.43;;;6.13;;
59930;SDS011;45790;51.538;6.736;2022-10-31T15:58:46;9.05;;;5.75;;
59930;SDS011;45790;51.538;6.736;2022-10-31T16:01:20;10.52;;;5.95;;
59930;SDS011;45790;51.538;6.736;2022-10-31T16:03:58;12.25;;;5.93;;
59930;SDS011;45790;51.538;6.736;2022-10-31T16:06:24;11.32;;;6.30;;
59930;SDS011;45790;51.538;6.736;2022-10-31T16:08:52;12.00;;;6.07;;
59930;SDS011;45790;51.538;6.736;2022-10-31T16:11:26;9.38;;;5.40;;
59930;SDS011;45790;51.538;6.736;2022-10-31T16:16:33;10.30;;;5.20;;
59930;SDS011;45790;51.538;6.736;2022-10-31T16:19:05;7.60;;;4.95;;
59930;SDS011;45790;51.538;6.736;2022-10-31T16:21:42;9.18;;;5.50;;
59930;SDS011;45790;51.538;6.736;2022-10-31T16:24:14;10.00;;;5.40;;
59930;SDS011;45790;51.538;6.736;2022-10-31T16:26:56;7.50;;;5.35;;
59930;SDS011;45790;51.538;6.736;2022-10-31T16:29:41;9.63;;;5.68;;
59930;SDS011;45790;51.538;6.736;2022-10-31T16:38:01;7.10;;;5.15;;
59930;SDS011;45790;51.538;6.736;2022-10-31T16:40:28;8.82;;;5.82;;
59930;SDS011;45790;51.538;6.736;2022-10-31T16:43:08;9.00;;;5.20;;
59930;SDS011;45790;51.538;6.736;2022-10-31T16:45:48;9.95;;;5.75;;
59930;SDS011;45790;51.538;6.736;2022-10-31T16:48:18;8.80;;;5.72;;
59930;SDS011;45790;51.538;6.736;2022-10-31T16:50:46;9.20;;;5.32;;
59930;SDS011;45790;51.538;6.736;2022-10-31T16:53:18;7.90;;;5.25;;
59930;SDS011;45790;51.538;6.736;2022-10-31T16:55:54;7.78;;;5.00;;
59930;SDS011;45790;51.538;6.736;2022-10-31T16:58:27;8.88;;;5.43;;
59930;SDS011;45790;51.538;6.736;2022-10-31T17:00:54;9.77;;;5.68;;
59930;SDS011;45790;51.538;6.736;2022-10-31T17:03:22;10.38;;;5.60;;
59930;SDS011;45790;51.538;6.736;2022-10-31T17:05:53;8.45;;;5.22;;
59930;SDS011;45790;51.538;6.736;2022-10-31T17:08:22;9.52;;;5.80;;